Terminal Aerodrome Forecast
Issued by NWS Newport/Morehead City, NC

Home | Current Version | Previous Version | Text Only | Print | Product List | Glossary Off
Versions: 1 2 3 4 5 6 7 8 9 10 11 12 13 14 15 16 17 18 19 20 21

000
FTUS42 KMHX 171000 AAE
TAFEWN
TAF AMD
KEWN 171028Z 1710/1806 02010KT 6SM RA BKN025 OVC035
     FM171130 02005KT P6SM BKN040 OVC100
     FM171300 03005KT P6SM VCSH OVC050
     FM171900 07005KT P6SM VCSH BKN050=

USA.gov is the U.S. government's official web portal to all federal, state and local government web resources and services.